Time,TemperatureF,DewpointF,PressureIn,WindDirection,WindDirectionDegrees,WindSpeedMPH,WindSpeedGustMPH,Humidity,HourlyPrecipIn,Conditions,Clouds,dailyrainin,SoftwareType,DateUTC
2013-01-31 00:00:00,62.2,59.5,29.39,SW,217,7.0,21.0,91,0.01,,,0.02,meteohub,2013-01-31 05:00:00,
2013-01-31 00:01:00,62.2,59.5,29.39,SSW,203,6.0,21.0,91,0.01,,,0.02,meteohub,2013-01-31 05:01:00,
2013-01-31 00:02:00,62.2,59.5,29.39,SE,132,6.0,20.0,91,0.01,,,0.02,meteohub,2013-01-31 05:02:00,
2013-01-31 00:03:00,62.2,59.5,29.39,SSW,209,8.0,20.0,91,0.01,,,0.02,meteohub,2013-01-31 05:03:00,
2013-01-31 00:08:00,62.2,59.5,29.36,SW,218,6.0,20.0,91,0.01,,,0.00,meteohub,2013-01-31 05:08:00,
2013-01-31 00:13:00,62.2,59.9,29.37,SW,236,5.0,18.0,92,0.02,,,0.01,meteohub,2013-01-31 05:13:00,
2013-01-31 00:18:00,62.1,59.7,29.36,West,269,5.0,18.0,92,0.02,,,0.01,meteohub,2013-01-31 05:18:00,
2013-01-31 00:23:00,62.1,59.7,29.36,SW,225,13.0,18.0,92,0.02,,,0.01,meteohub,2013-01-31 05:23:00,
2013-01-31 00:28:00,62.1,59.7,29.36,SSW,194,6.0,18.0,92,0.04,,,0.03,meteohub,2013-01-31 05:28:00,
2013-01-31 00:33:00,62.1,60.1,29.35,SW,215,7.0,18.0,93,0.06,,,0.04,meteohub,2013-01-31 05:33:00,
2013-01-31 00:38:00,62.1,60.1,29.35,SW,236,6.0,18.0,93,0.07,,,0.06,meteohub,2013-01-31 05:38:00,
2013-01-31 00:43:00,62.1,60.1,29.34,SW,218,8.0,19.0,93,0.09,,,0.07,meteohub,2013-01-31 05:43:00,
2013-01-31 00:48:00,62.2,60.3,29.34,South,186,9.0,19.0,93,0.10,,,0.08,meteohub,2013-01-31 05:48:00,
2013-01-31 00:53:00,62.4,60.4,29.33,South,179,7.0,20.0,93,0.12,,,0.11,meteohub,2013-01-31 05:53:00,
2013-01-31 00:58:00,62.4,60.4,29.31,SW,226,8.0,20.0,93,0.13,,,0.12,meteohub,2013-01-31 05:58:00,
2013-01-31 01:03:00,62.4,60.4,29.31,SSW,202,7.0,20.0,93,0.14,,,0.14,meteohub,2013-01-31 06:03:00,
2013-01-31 01:08:00,62.8,60.8,29.30,SSW,207,22.0,22.0,93,0.14,,,0.14,meteohub,2013-01-31 06:08:00,
2013-01-31 01:13:00,63.0,60.6,29.30,SW,221,5.0,22.0,92,0.14,,,0.15,meteohub,2013-01-31 06:13:00,
2013-01-31 01:18:00,62.8,60.4,29.29,SSW,205,9.0,22.0,92,0.14,,,0.15,meteohub,2013-01-31 06:18:00,
2013-01-31 01:23:00,62.8,60.4,29.28,SW,222,10.0,22.0,92,0.15,,,0.16,meteohub,2013-01-31 06:23:00,
2013-01-31 01:29:00,62.6,60.3,29.27,SW,222,8.0,21.0,92,0.14,,,0.17,meteohub,2013-01-31 06:29:00,
2013-01-31 01:34:00,62.4,60.1,29.25,SSW,203,5.0,20.0,92,0.13,,,0.18,meteohub,2013-01-31 06:34:00,
2013-01-31 01:39:00,62.4,60.1,29.24,WSW,243,12.0,20.0,92,0.13,,,0.19,meteohub,2013-01-31 06:39:00,
2013-01-31 01:44:00,62.2,59.9,29.23,South,183,8.0,23.0,92,0.11,,,0.19,meteohub,2013-01-31 06:44:00,
2013-01-31 01:57:00,62.1,60.1,29.22,SSW,198,6.0,23.0,93,0.08,,,0.21,meteohub,2013-01-31 06:57:00,
2013-01-31 02:02:00,62.2,59.9,29.21,South,190,8.0,25.0,92,0.07,,,0.21,meteohub,2013-01-31 07:02:00,
2013-01-31 02:07:00,62.2,59.9,29.21,SW,226,37.0,37.0,92,0.08,,,0.22,meteohub,2013-01-31 07:07:00,
2013-01-31 02:11:00,62.4,60.1,29.20,SSW,203,18.0,37.0,92,0.07,,,0.22,meteohub,2013-01-31 07:11:00,
2013-01-31 02:16:00,62.4,60.1,29.18,SW,215,11.0,37.0,92,0.07,,,0.22,meteohub,2013-01-31 07:16:00,
2013-01-31 02:22:00,62.4,60.1,29.18,SSW,202,2.0,37.0,92,0.06,,,0.22,meteohub,2013-01-31 07:22:00,
2013-01-31 02:27:00,62.4,60.1,29.18,SW,229,12.0,29.0,92,0.05,,,0.22,meteohub,2013-01-31 07:27:00,
2013-01-31 02:32:00,62.8,60.4,29.18,SW,217,13.0,28.0,92,0.04,,,0.22,meteohub,2013-01-31 07:32:00,
2013-01-31 02:37:00,62.8,60.4,29.18,SSE,153,9.0,29.0,92,0.03,,,0.22,meteohub,2013-01-31 07:37:00,
2013-01-31 02:42:00,63.0,60.6,29.17,South,174,6.0,29.0,92,0.03,,,0.22,meteohub,2013-01-31 07:42:00,
2013-01-31 02:47:00,62.8,60.4,29.16,South,179,9.0,30.0,92,0.03,,,0.23,meteohub,2013-01-31 07:47:00,
2013-01-31 02:52:00,63.0,60.6,29.16,SSW,201,17.0,30.0,92,0.03,,,0.23,meteohub,2013-01-31 07:52:00,
2013-01-31 02:57:00,63.0,60.6,29.15,SW,221,21.0,30.0,92,0.02,,,0.23,meteohub,2013-01-31 07:57:00,
2013-01-31 03:02:00,63.0,60.6,29.14,SSW,211,9.0,38.0,92,0.03,,,0.24,meteohub,2013-01-31 08:02:00,
2013-01-31 03:07:00,62.8,60.4,29.13,SW,228,18.0,38.0,92,0.03,,,0.25,meteohub,2013-01-31 08:07:00,
2013-01-31 03:12:00,62.8,60.4,29.13,SW,229,16.0,38.0,92,0.04,,,0.26,meteohub,2013-01-31 08:12:00,
2013-01-31 03:17:00,62.8,60.8,29.12,SW,236,9.0,30.0,93,0.07,,,0.29,meteohub,2013-01-31 08:17:00,
2013-01-31 03:22:00,62.8,60.8,29.11,SW,217,14.0,30.0,93,0.09,,,0.31,meteohub,2013-01-31 08:22:00,
2013-01-31 03:27:00,62.6,60.6,29.11,SSW,212,11.0,30.0,93,0.13,,,0.35,meteohub,2013-01-31 08:27:00,
2013-01-31 03:32:00,62.4,60.6,29.11,WSW,245,7.0,32.0,94,0.16,,,0.38,meteohub,2013-01-31 08:32:00,
2013-01-31 03:37:00,62.4,60.6,29.11,SW,218,16.0,32.0,94,0.19,,,0.41,meteohub,2013-01-31 08:37:00,
2013-01-31 03:42:00,62.4,60.6,29.11,SSW,193,9.0,32.0,94,0.20,,,0.42,meteohub,2013-01-31 08:42:00,
2013-01-31 03:47:00,62.8,60.8,29.12,SSW,205,15.0,25.0,93,0.20,,,0.43,meteohub,2013-01-31 08:47:00,
2013-01-31 03:52:00,62.6,60.8,29.19,West,269,15.0,25.0,94,0.21,,,0.44,meteohub,2013-01-31 08:52:00,
2013-01-31 03:57:00,61.9,60.4,29.18,West,281,6.0,27.0,95,0.43,,,0.66,meteohub,2013-01-31 08:57:00,
2013-01-31 04:02:00,61.3,60.3,29.17,West,259,10.0,27.0,96,0.47,,,0.71,meteohub,2013-01-31 09:02:00,
2013-01-31 04:07:00,61.2,59.7,29.19,WNW,287,5.0,27.0,95,0.47,,,0.72,meteohub,2013-01-31 09:07:00,
2013-01-31 04:12:00,61.2,59.4,29.19,WNW,287,12.0,20.0,94,0.47,,,0.73,meteohub,2013-01-31 09:12:00,
2013-01-31 04:17:00,61.0,59.0,29.18,WNW,285,2.0,24.0,93,0.43,,,0.73,meteohub,2013-01-31 09:17:00,
2013-01-31 04:22:00,60.6,58.3,29.17,NW,311,9.0,24.0,92,0.42,,,0.74,meteohub,2013-01-31 09:22:00,
2013-01-31 04:27:00,60.4,58.1,29.18,WNW,284,15.0,24.0,92,0.40,,,0.75,meteohub,2013-01-31 09:27:00,
2013-01-31 04:32:00,60.3,57.6,29.17,West,281,4.0,20.0,91,0.38,,,0.76,meteohub,2013-01-31 09:32:00,
2013-01-31 04:37:00,59.9,57.6,29.16,West,263,1.0,20.0,92,0.36,,,0.77,meteohub,2013-01-31 09:37:00,
2013-01-31 04:42:00,59.7,57.7,29.17,SW,214,1.0,20.0,93,0.34,,,0.77,meteohub,2013-01-31 09:42:00,
2013-01-31 04:47:00,59.4,57.4,29.17,SSW,208,4.0,12.0,93,0.34,,,0.77,meteohub,2013-01-31 09:47:00,
2013-01-31 04:52:00,59.5,57.6,29.16,West,259,8.0,10.0,93,0.34,,,0.79,meteohub,2013-01-31 09:52:00,
2013-01-31 04:57:00,59.4,57.0,29.16,WSW,257,4.0,10.0,92,0.34,,,0.79,meteohub,2013-01-31 09:57:00,
2013-01-31 05:02:00,59.0,56.7,29.15,WSW,256,3.0,13.0,92,0.10,,,0.81,meteohub,2013-01-31 10:02:00,
2013-01-31 05:07:00,58.8,56.5,29.13,SSW,204,2.0,17.0,92,0.10,,,0.82,meteohub,2013-01-31 10:07:00,
2013-01-31 05:12:00,58.6,55.9,29.13,WSW,246,5.0,17.0,91,0.09,,,0.82,meteohub,2013-01-31 10:12:00,
2013-01-31 05:17:00,58.5,55.8,29.13,West,259,6.0,17.0,91,0.08,,,0.82,meteohub,2013-01-31 10:17:00,
2013-01-31 05:22:00,58.5,55.8,29.11,SW,226,8.0,15.0,91,0.08,,,0.82,meteohub,2013-01-31 10:22:00,
2013-01-31 05:27:00,58.3,55.9,29.11,South,189,8.0,15.0,92,0.08,,,0.82,meteohub,2013-01-31 10:27:00,
2013-01-31 05:32:00,58.3,55.9,29.09,SW,219,8.0,12.0,92,0.06,,,0.82,meteohub,2013-01-31 10:32:00,
2013-01-31 05:37:00,58.3,55.9,29.09,SW,229,1.0,15.0,92,0.05,,,0.82,meteohub,2013-01-31 10:37:00,
2013-01-31 05:42:00,58.3,55.9,29.11,SSW,211,6.0,15.0,92,0.05,,,0.82,meteohub,2013-01-31 10:42:00,
2013-01-31 05:47:00,58.5,56.1,29.10,SSW,212,5.0,16.0,92,0.04,,,0.82,meteohub,2013-01-31 10:47:00,
2013-01-31 05:52:00,58.5,55.8,29.10,SW,222,15.0,16.0,91,0.03,,,0.82,meteohub,2013-01-31 10:52:00,
2013-01-31 05:57:00,58.5,55.6,29.10,WSW,242,7.0,16.0,90,0.02,,,0.82,meteohub,2013-01-31 10:57:00,
2013-01-31 06:02:00,58.5,55.6,29.11,SSW,195,1.0,17.0,90,0.01,,,0.82,meteohub,2013-01-31 11:02:00,
2013-01-31 06:07:00,58.5,55.2,29.12,SW,216,9.0,17.0,89,0.00,,,0.82,meteohub,2013-01-31 11:07:00,
2013-01-31 06:12:00,58.5,55.2,29.12,West,262,7.0,17.0,89,0.00,,,0.82,meteohub,2013-01-31 11:12:00,
2013-01-31 06:17:00,57.9,55.2,29.14,WNW,285,7.0,15.0,91,0.04,,,0.85,meteohub,2013-01-31 11:17:00,
2013-01-31 06:22:00,57.2,54.0,29.17,WNW,296,13.0,22.0,89,0.04,,,0.86,meteohub,2013-01-31 11:22:00,
2013-01-31 06:28:00,52.5,46.2,29.21,WNW,297,29.0,41.0,79,0.05,,,0.87,meteohub,2013-01-31 11:28:00,
2013-01-31 06:33:00,50.2,42.6,29.22,WNW,294,20.0,42.0,75,0.05,,,0.87,meteohub,2013-01-31 11:33:00,
2013-01-31 06:38:00,49.5,42.3,29.23,North,357,13.0,42.0,76,0.05,,,0.87,meteohub,2013-01-31 11:38:00,
2013-01-31 06:43:00,49.3,42.1,29.23,West,275,11.0,42.0,76,0.05,,,0.87,meteohub,2013-01-31 11:43:00,
2013-01-31 06:48:00,48.9,42.4,29.24,NW,304,21.0,41.0,78,0.05,,,0.87,meteohub,2013-01-31 11:48:00,
2013-01-31 06:53:00,48.9,42.1,29.24,NW,312,20.0,34.0,77,0.05,,,0.87,meteohub,2013-01-31 11:53:00,
2013-01-31 06:58:00,48.7,42.3,29.24,NW,304,10.0,33.0,78,0.05,,,0.87,meteohub,2013-01-31 11:58:00,
2013-01-31 07:03:00,48.6,41.7,29.26,WNW,290,14.0,33.0,77,0.05,,,0.87,meteohub,2013-01-31 12:03:00,
2013-01-31 07:08:00,48.6,40.6,29.26,West,280,17.0,27.0,74,0.05,,,0.87,meteohub,2013-01-31 12:08:00,
2013-01-31 07:13:00,48.6,40.3,29.26,WNW,295,8.0,28.0,73,0.05,,,0.87,meteohub,2013-01-31 12:13:00,
2013-01-31 07:18:00,48.4,39.4,29.26,WNW,297,12.0,28.0,71,0.01,,,0.87,meteohub,2013-01-31 12:18:00,
2013-01-31 07:23:00,48.0,38.3,29.26,WNW,290,12.0,28.0,69,0.00,,,0.87,meteohub,2013-01-31 12:23:00,
2013-01-31 07:28:00,47.8,38.1,29.27,WNW,295,10.0,25.0,69,0.00,,,0.87,meteohub,2013-01-31 12:28:00,
2013-01-31 07:33:00,47.7,37.9,29.28,WNW,301,10.0,29.0,69,0.00,,,0.87,meteohub,2013-01-31 12:33:00,
2013-01-31 07:38:00,47.5,37.8,29.29,WNW,283,15.0,29.0,69,0.00,,,0.87,meteohub,2013-01-31 12:38:00,
2013-01-31 07:43:00,47.5,37.4,29.29,NW,306,13.0,29.0,68,0.00,,,0.87,meteohub,2013-01-31 12:43:00,
2013-01-31 07:48:00,47.5,37.4,29.30,West,274,11.0,27.0,68,0.00,,,0.87,meteohub,2013-01-31 12:48:00,
2013-01-31 07:53:00,47.5,36.7,29.31,WNW,303,12.0,27.0,66,0.00,,,0.87,meteohub,2013-01-31 12:53:00,
2013-01-31 07:58:00,47.5,36.7,29.31,WNW,283,10.0,27.0,66,0.00,,,0.87,meteohub,2013-01-31 12:58:00,
2013-01-31 08:03:00,47.1,36.0,29.31,WNW,297,22.0,25.0,65,0.00,,,0.87,meteohub,2013-01-31 13:03:00,
2013-01-31 08:08:00,47.1,36.0,29.32,NW,322,15.0,33.0,65,0.00,,,0.87,meteohub,2013-01-31 13:08:00,
2013-01-31 08:13:00,46.9,36.5,29.33,WNW,296,9.0,33.0,67,0.00,,,0.87,meteohub,2013-01-31 13:13:00,
2013-01-31 08:18:00,46.8,36.0,29.33,NW,312,13.0,33.0,66,0.00,,,0.87,meteohub,2013-01-31 13:18:00,
2013-01-31 08:23:00,46.6,35.1,29.34,WNW,295,17.0,27.0,64,0.00,,,0.87,meteohub,2013-01-31 13:23:00,
2013-01-31 08:28:00,46.2,35.1,29.35,NW,316,18.0,30.0,65,0.00,,,0.87,meteohub,2013-01-31 13:28:00,
2013-01-31 08:33:00,46.0,33.3,29.35,WNW,290,13.0,30.0,61,0.00,,,0.87,meteohub,2013-01-31 13:33:00,
2013-01-31 08:38:00,45.9,33.6,29.36,NW,309,19.0,30.0,62,0.00,,,0.87,meteohub,2013-01-31 13:38:00,
2013-01-31 08:43:00,45.7,33.4,29.37,WNW,291,7.0,29.0,62,0.00,,,0.87,meteohub,2013-01-31 13:43:00,
2013-01-31 08:48:00,45.3,32.7,29.38,West,269,13.0,30.0,61,0.00,,,0.87,meteohub,2013-01-31 13:48:00,
2013-01-31 08:53:00,45.1,30.7,29.39,WNW,294,26.0,32.0,57,0.00,,,0.87,meteohub,2013-01-31 13:53:00,
2013-01-31 08:58:00,44.8,30.0,29.39,WNW,301,15.0,41.0,56,0.00,,,0.87,meteohub,2013-01-31 13:58:00,
2013-01-31 09:00:00,44.8,30.6,29.39,WNW,284,16.0,41.0,57,0.00,,,0.87,meteohub,2013-01-31 14:00:00,
2013-01-31 09:07:00,44.4,30.9,29.40,NW,319,10.0,41.0,59,0.00,,,0.87,meteohub,2013-01-31 14:07:00,
2013-01-31 09:12:00,44.2,30.4,29.41,WNW,285,19.0,35.0,58,0.00,,,0.87,meteohub,2013-01-31 14:12:00,
2013-01-31 09:17:00,44.1,30.2,29.41,West,281,11.0,34.0,58,0.00,,,0.87,meteohub,2013-01-31 14:17:00,
2013-01-31 09:22:00,44.2,30.4,29.41,West,277,15.0,34.0,58,0.00,,,0.87,meteohub,2013-01-31 14:22:00,
2013-01-31 09:27:00,44.2,30.4,29.42,WNW,288,12.0,28.0,58,0.00,,,0.87,meteohub,2013-01-31 14:27:00,
2013-01-31 09:32:00,44.6,30.4,29.42,WNW,288,12.0,28.0,57,0.00,,,0.87,meteohub,2013-01-31 14:32:00,
2013-01-31 09:37:00,44.8,29.7,29.43,WNW,288,18.0,31.0,55,0.00,,,0.87,meteohub,2013-01-31 14:37:00,
2013-01-31 09:42:00,44.8,28.8,29.44,WNW,297,12.0,31.0,53,0.00,,,0.87,meteohub,2013-01-31 14:42:00,
2013-01-31 09:47:00,44.8,26.8,29.43,WNW,292,19.0,42.0,49,0.00,,,0.87,meteohub,2013-01-31 14:47:00,
2013-01-31 09:52:00,44.8,25.7,29.44,West,280,40.0,42.0,47,0.00,,,0.87,meteohub,2013-01-31 14:52:00,
2013-01-31 09:57:00,44.4,25.5,29.44,West,269,11.0,42.0,47,0.00,,,0.87,meteohub,2013-01-31 14:57:00,
2013-01-31 10:02:00,44.4,25.5,29.45,West,277,11.0,40.0,47,0.00,,,0.87,meteohub,2013-01-31 15:02:00,
2013-01-31 10:07:00,44.8,25.7,29.44,WNW,299,8.0,40.0,47,0.00,,,0.87,meteohub,2013-01-31 15:07:00,
2013-01-31 10:12:00,45.0,25.3,29.46,NW,308,20.0,35.0,46,0.00,,,0.87,meteohub,2013-01-31 15:12:00,
2013-01-31 10:17:00,44.8,23.7,29.46,WNW,301,22.0,29.0,43,0.00,,,0.87,meteohub,2013-01-31 15:17:00,
2013-01-31 10:22:00,44.6,24.1,29.45,NW,308,23.0,38.0,44,0.00,,,0.87,meteohub,2013-01-31 15:22:00,
2013-01-31 10:27:00,44.4,24.4,29.45,NW,315,17.0,38.0,45,0.00,,,0.87,meteohub,2013-01-31 15:27:00,
2013-01-31 10:32:00,44.1,23.0,29.45,WNW,298,22.0,38.0,43,0.00,,,0.87,meteohub,2013-01-31 15:32:00,
2013-01-31 10:37:00,44.1,24.1,29.45,WNW,287,27.0,45.0,45,0.00,,,0.87,meteohub,2013-01-31 15:37:00,
2013-01-31 10:42:00,44.2,24.8,29.46,NW,305,26.0,45.0,46,0.00,,,0.87,meteohub,2013-01-31 15:42:00,
2013-01-31 10:47:00,44.2,24.8,29.46,WNW,288,18.0,45.0,46,0.00,,,0.87,meteohub,2013-01-31 15:47:00,
2013-01-31 10:52:00,44.4,24.4,29.47,WNW,287,21.0,36.0,45,0.00,,,0.87,meteohub,2013-01-31 15:52:00,
2013-01-31 10:57:00,44.2,23.7,29.47,WNW,294,5.0,36.0,44,0.00,,,0.87,meteohub,2013-01-31 15:57:00,
2013-01-31 11:02:00,44.2,24.3,29.48,WNW,291,21.0,36.0,45,0.00,,,0.87,meteohub,2013-01-31 16:02:00,
2013-01-31 11:07:00,44.2,25.3,29.48,West,269,20.0,33.0,47,0.00,,,0.87,meteohub,2013-01-31 16:07:00,
2013-01-31 11:12:00,44.2,25.3,29.48,WNW,287,20.0,33.0,47,0.00,,,0.87,meteohub,2013-01-31 16:12:00,
2013-01-31 11:17:00,44.4,25.5,29.49,WNW,301,14.0,33.0,47,0.00,,,0.87,meteohub,2013-01-31 16:17:00,
2013-01-31 11:22:00,44.2,23.7,29.49,NW,304,19.0,31.0,44,0.00,,,0.87,meteohub,2013-01-31 16:22:00,
2013-01-31 11:27:00,44.2,24.3,29.49,WNW,287,14.0,32.0,45,0.00,,,0.87,meteohub,2013-01-31 16:27:00,
2013-01-31 11:32:00,44.4,23.9,29.49,NW,307,11.0,35.0,44,0.00,,,0.87,meteohub,2013-01-31 16:32:00,
2013-01-31 11:37:00,44.2,23.2,29.49,West,276,19.0,35.0,43,0.00,,,0.87,meteohub,2013-01-31 16:37:00,
2013-01-31 11:42:00,44.1,23.0,29.49,WNW,293,13.0,35.0,43,0.00,,,0.87,meteohub,2013-01-31 16:42:00,
2013-01-31 11:47:00,44.1,24.1,29.49,WNW,300,10.0,34.0,45,0.00,,,0.87,meteohub,2013-01-31 16:47:00,
2013-01-31 11:52:00,44.1,23.5,29.48,NW,308,12.0,34.0,44,0.00,,,0.87,meteohub,2013-01-31 16:52:00,
2013-01-31 11:57:00,44.2,23.7,29.49,WNW,297,25.0,31.0,44,0.00,,,0.87,meteohub,2013-01-31 16:57:00,
2013-01-31 12:02:00,44.2,23.2,29.49,West,281,19.0,33.0,43,0.00,,,0.87,meteohub,2013-01-31 17:02:00,
2013-01-31 12:07:00,44.1,23.0,29.49,WNW,287,13.0,35.0,43,0.00,,,0.87,meteohub,2013-01-31 17:07:00,
2013-01-31 12:12:00,44.4,23.9,29.49,WNW,287,20.0,35.0,44,0.00,,,0.87,meteohub,2013-01-31 17:12:00,
2013-01-31 12:17:00,44.1,23.5,29.49,WNW,290,26.0,41.0,44,0.00,,,0.87,meteohub,2013-01-31 17:17:00,
2013-01-31 12:22:00,44.1,23.5,29.50,WNW,288,11.0,41.0,44,0.00,,,0.87,meteohub,2013-01-31 17:22:00,
2013-01-31 12:27:00,44.2,23.7,29.50,WNW,298,16.0,41.0,44,0.00,,,0.87,meteohub,2013-01-31 17:27:00,
2013-01-31 12:32:00,44.4,23.9,29.50,WNW,297,19.0,31.0,44,0.00,,,0.87,meteohub,2013-01-31 17:32:00,
2013-01-31 12:37:00,44.4,24.4,29.50,WNW,292,10.0,31.0,45,0.00,,,0.87,meteohub,2013-01-31 17:37:00,
2013-01-31 12:42:00,44.6,24.1,29.50,WSW,243,23.0,31.0,44,0.00,,,0.87,meteohub,2013-01-31 17:42:00,
2013-01-31 12:47:00,44.6,24.1,29.50,WNW,300,10.0,30.0,44,0.00,,,0.87,meteohub,2013-01-31 17:47:00,
2013-01-31 12:52:00,44.6,24.1,29.51,WNW,290,18.0,28.0,44,0.00,,,0.87,meteohub,2013-01-31 17:52:00,
2013-01-31 12:57:00,44.4,25.0,29.51,WNW,287,11.0,28.0,46,0.00,,,0.87,meteohub,2013-01-31 17:57:00,
2013-01-31 13:02:00,44.2,24.8,29.51,WNW,290,19.0,27.0,46,0.00,,,0.87,meteohub,2013-01-31 18:02:00,
2013-01-31 13:07:00,44.2,25.7,29.50,West,279,12.0,27.0,48,0.00,,,0.87,meteohub,2013-01-31 18:07:00,
2013-01-31 13:12:00,44.1,26.1,29.52,West,263,11.0,27.0,49,0.00,,,0.87,meteohub,2013-01-31 18:12:00,
2013-01-31 13:17:00,43.5,24.1,29.52,WNW,297,19.0,27.0,46,0.00,,,0.87,meteohub,2013-01-31 18:17:00,
2013-01-31 13:22:00,43.5,23.5,29.52,SW,226,11.0,37.0,45,0.00,,,0.87,meteohub,2013-01-31 18:22:00,
2013-01-31 13:27:00,44.1,23.5,29.52,WNW,287,11.0,37.0,44,0.00,,,0.87,meteohub,2013-01-31 18:27:00,
2013-01-31 13:32:00,44.2,22.6,29.52,NW,311,12.0,37.0,42,0.00,,,0.87,meteohub,2013-01-31 18:32:00,
2013-01-31 13:37:00,44.1,23.0,29.53,NW,326,12.0,28.0,43,0.00,,,0.87,meteohub,2013-01-31 18:37:00,
2013-01-31 13:42:00,43.9,22.3,29.53,NW,315,18.0,28.0,42,0.00,,,0.87,meteohub,2013-01-31 18:42:00,
2013-01-31 13:47:00,43.7,22.6,29.54,WNW,283,17.0,28.0,43,0.00,,,0.87,meteohub,2013-01-31 18:47:00,
2013-01-31 13:52:00,44.1,23.5,29.54,West,280,16.0,27.0,44,0.00,,,0.87,meteohub,2013-01-31 18:52:00,
2013-01-31 13:57:00,44.2,24.8,29.55,West,260,19.0,27.0,46,0.00,,,0.87,meteohub,2013-01-31 18:57:00,
2013-01-31 14:03:00,44.1,23.5,29.55,West,281,25.0,27.0,44,0.00,,,0.87,meteohub,2013-01-31 19:03:00,
2013-01-31 14:08:00,43.9,22.8,29.55,NW,308,14.0,31.0,43,0.00,,,0.87,meteohub,2013-01-31 19:08:00,
2013-01-31 14:13:00,43.2,22.1,29.56,WNW,290,10.0,31.0,43,0.00,,,0.87,meteohub,2013-01-31 19:13:00,
2013-01-31 14:18:00,43.0,22.6,29.55,West,275,18.0,31.0,44,0.00,,,0.87,meteohub,2013-01-31 19:18:00,
2013-01-31 14:23:00,43.3,22.8,29.55,WNW,294,11.0,31.0,44,0.00,,,0.87,meteohub,2013-01-31 19:23:00,
2013-01-31 14:28:00,43.5,23.5,29.55,NW,308,13.0,31.0,45,0.00,,,0.87,meteohub,2013-01-31 19:28:00,
2013-01-31 14:33:00,43.2,23.7,29.57,West,275,17.0,29.0,46,0.00,,,0.87,meteohub,2013-01-31 19:33:00,
2013-01-31 14:38:00,42.4,23.2,29.57,West,281,18.0,30.0,46,0.00,,,0.87,meteohub,2013-01-31 19:38:00,
2013-01-31 14:43:00,42.3,20.8,29.57,WNW,283,17.0,30.0,42,0.00,,,0.87,meteohub,2013-01-31 19:43:00,
2013-01-31 14:48:00,41.7,20.3,29.58,West,280,11.0,30.0,42,0.00,,,0.87,meteohub,2013-01-31 19:48:00,
2013-01-31 14:53:00,41.9,21.0,29.58,West,278,12.0,30.0,43,0.00,,,0.87,meteohub,2013-01-31 19:53:00,
2013-01-31 14:58:00,42.4,21.6,29.58,NW,308,14.0,30.0,43,0.00,,,0.87,meteohub,2013-01-31 19:58:00,
2013-01-31 15:03:00,42.4,21.6,29.58,NW,308,23.0,30.0,43,0.00,,,0.87,meteohub,2013-01-31 20:03:00,
2013-01-31 15:08:00,42.4,21.6,29.59,WNW,288,12.0,28.0,43,0.00,,,0.87,meteohub,2013-01-31 20:08:00,
2013-01-31 15:13:00,42.3,21.4,29.59,NW,319,10.0,29.0,43,0.00,,,0.87,meteohub,2013-01-31 20:13:00,
2013-01-31 15:18:00,42.1,22.3,29.59,West,259,16.0,29.0,45,0.00,,,0.87,meteohub,2013-01-31 20:18:00,
2013-01-31 15:23:00,41.9,22.1,29.59,West,274,16.0,29.0,45,0.00,,,0.87,meteohub,2013-01-31 20:23:00,
2013-01-31 15:28:00,41.9,22.1,29.59,WNW,287,20.0,33.0,45,0.00,,,0.87,meteohub,2013-01-31 20:28:00,
2013-01-31 15:33:00,41.7,21.4,29.59,WNW,294,9.0,33.0,44,0.00,,,0.87,meteohub,2013-01-31 20:33:00,
2013-01-31 15:38:00,41.4,21.6,29.60,WNW,301,19.0,36.0,45,0.00,,,0.87,meteohub,2013-01-31 20:38:00,
2013-01-31 15:43:00,41.2,21.9,29.60,WNW,295,24.0,36.0,46,0.00,,,0.87,meteohub,2013-01-31 20:43:00,
2013-01-31 15:48:00,41.4,22.1,29.61,West,281,17.0,36.0,46,0.00,,,0.87,meteohub,2013-01-31 20:48:00,
2013-01-31 15:53:00,41.4,21.6,29.61,West,276,23.0,28.0,45,0.00,,,0.87,meteohub,2013-01-31 20:53:00,
2013-01-31 15:58:00,41.4,19.9,29.62,WNW,288,8.0,29.0,42,0.00,,,0.87,meteohub,2013-01-31 20:58:00,
2013-01-31 16:03:00,41.2,19.8,29.62,West,276,13.0,29.0,42,0.00,,,0.87,meteohub,2013-01-31 21:03:00,
2013-01-31 16:08:00,40.8,19.6,29.63,WNW,300,22.0,29.0,42,0.00,,,0.87,meteohub,2013-01-31 21:08:00,
2013-01-31 16:13:00,40.5,19.8,29.63,WSW,252,9.0,32.0,43,0.00,,,0.87,meteohub,2013-01-31 21:13:00,
2013-01-31 16:18:00,40.1,19.4,29.64,WNW,300,12.0,32.0,43,0.00,,,0.87,meteohub,2013-01-31 21:18:00,
2013-01-31 16:23:00,39.9,19.8,29.64,NW,307,13.0,32.0,44,0.00,,,0.87,meteohub,2013-01-31 21:23:00,
2013-01-31 16:28:00,39.7,20.7,29.64,West,276,21.0,31.0,46,0.00,,,0.87,meteohub,2013-01-31 21:28:00,
2013-01-31 16:33:00,39.6,21.6,29.64,West,274,10.0,31.0,48,0.00,,,0.87,meteohub,2013-01-31 21:33:00,
2013-01-31 16:38:00,39.0,22.5,29.65,NW,312,16.0,29.0,51,0.00,,,0.87,meteohub,2013-01-31 21:38:00,
2013-01-31 16:43:00,38.8,23.2,29.66,WNW,297,15.0,29.0,53,0.00,,,0.87,meteohub,2013-01-31 21:43:00,
2013-01-31 16:48:00,38.3,22.6,29.66,WNW,290,18.0,25.0,53,0.00,,,0.87,meteohub,2013-01-31 21:48:00,
2013-01-31 16:53:00,37.9,24.4,29.68,West,271,18.0,35.0,58,0.00,,,0.87,meteohub,2013-01-31 21:53:00,
2013-01-31 16:58:00,37.2,20.8,29.68,WNW,295,20.0,35.0,51,0.00,,,0.87,meteohub,2013-01-31 21:58:00,
2013-01-31 17:03:00,36.9,20.5,29.68,WSW,243,12.0,35.0,51,0.00,,,0.87,meteohub,2013-01-31 22:03:00,
2013-01-31 17:08:00,36.7,19.8,29.68,West,274,20.0,35.0,50,0.00,,,0.87,meteohub,2013-01-31 22:08:00,
2013-01-31 17:13:00,36.7,18.9,29.69,WNW,300,16.0,35.0,48,0.00,,,0.87,meteohub,2013-01-31 22:13:00,
2013-01-31 17:18:00,36.5,18.1,29.69,West,278,12.0,33.0,47,0.00,,,0.87,meteohub,2013-01-31 22:18:00,
2013-01-31 17:23:00,36.3,18.0,29.70,WNW,295,12.0,33.0,47,0.00,,,0.87,meteohub,2013-01-31 22:23:00,
2013-01-31 17:28:00,36.3,17.6,29.70,West,274,12.0,31.0,46,0.00,,,0.87,meteohub,2013-01-31 22:28:00,
2013-01-31 17:33:00,36.1,17.4,29.71,NW,316,13.0,29.0,46,0.00,,,0.87,meteohub,2013-01-31 22:33:00,
2013-01-31 17:38:00,36.1,16.9,29.71,WNW,289,18.0,28.0,45,0.00,,,0.87,meteohub,2013-01-31 22:38:00,
2013-01-31 17:43:00,36.1,16.9,29.72,WNW,291,18.0,28.0,45,0.00,,,0.87,meteohub,2013-01-31 22:43:00,
2013-01-31 17:48:00,36.0,17.2,29.72,WNW,294,11.0,28.0,46,0.00,,,0.87,meteohub,2013-01-31 22:48:00,
2013-01-31 17:54:00,36.0,17.2,29.73,West,275,11.0,25.0,46,0.00,,,0.87,meteohub,2013-01-31 22:54:00,
2013-01-31 17:59:00,36.0,17.2,29.72,WNW,283,13.0,24.0,46,0.00,,,0.87,meteohub,2013-01-31 22:59:00,
2013-01-31 18:04:00,36.0,17.2,29.73,West,270,10.0,24.0,46,0.00,,,0.87,meteohub,2013-01-31 23:04:00,
2013-01-31 18:09:00,35.8,17.1,29.73,WNW,300,11.0,24.0,46,0.00,,,0.87,meteohub,2013-01-31 23:09:00,
2013-01-31 18:14:00,35.8,17.6,29.73,West,266,11.0,21.0,47,0.00,,,0.87,meteohub,2013-01-31 23:14:00,
2013-01-31 18:19:00,35.8,18.0,29.74,West,276,9.0,18.0,48,0.00,,,0.87,meteohub,2013-01-31 23:19:00,
2013-01-31 18:24:00,35.8,18.0,29.74,WNW,294,12.0,20.0,48,0.00,,,0.87,meteohub,2013-01-31 23:24:00,
2013-01-31 18:29:00,35.6,17.8,29.75,WNW,294,19.0,20.0,48,0.00,,,0.87,meteohub,2013-01-31 23:29:00,
2013-01-31 18:34:00,35.6,17.8,29.75,NW,311,6.0,20.0,48,0.00,,,0.87,meteohub,2013-01-31 23:34:00,
2013-01-31 18:39:00,35.4,18.1,29.75,West,277,3.0,20.0,49,0.00,,,0.87,meteohub,2013-01-31 23:39:00,
2013-01-31 18:44:00,35.4,16.7,29.76,WNW,288,12.0,20.0,46,0.00,,,0.87,meteohub,2013-01-31 23:44:00,
2013-01-31 18:49:00,35.2,16.5,29.76,WNW,295,10.0,29.0,46,0.00,,,0.87,meteohub,2013-01-31 23:49:00,
2013-01-31 18:54:00,35.1,16.9,29.76,WNW,288,10.0,29.0,47,0.00,,,0.87,meteohub,2013-01-31 23:54:00,
2013-01-31 18:59:00,35.1,16.9,29.76,WNW,295,8.0,29.0,47,0.00,,,0.87,meteohub,2013-01-31 23:59:00,
2013-01-31 19:04:00,34.9,17.2,29.76,NW,311,10.0,23.0,48,0.00,,,0.87,meteohub,2013-02-01 00:04:00,
2013-01-31 19:09:00,34.7,17.4,29.77,WNW,294,6.0,22.0,49,0.00,,,0.87,meteohub,2013-02-01 00:09:00,
2013-01-31 19:14:00,34.5,17.2,29.77,West,273,10.0,21.0,49,0.00,,,0.87,meteohub,2013-02-01 00:14:00,
2013-01-31 19:19:00,34.5,17.2,29.77,West,278,8.0,15.0,49,0.00,,,0.87,meteohub,2013-02-01 00:19:00,
2013-01-31 19:24:00,34.5,17.8,29.78,West,281,5.0,15.0,50,0.00,,,0.87,meteohub,2013-02-01 00:24:00,
2013-01-31 19:29:00,34.5,17.8,29.78,West,279,7.0,16.0,50,0.00,,,0.87,meteohub,2013-02-01 00:29:00,
2013-01-31 19:34:00,34.3,18.1,29.78,West,281,6.0,16.0,51,0.00,,,0.87,meteohub,2013-02-01 00:34:00,
2013-01-31 19:39:00,34.3,18.1,29.77,West,273,13.0,16.0,51,0.00,,,0.87,meteohub,2013-02-01 00:39:00,
2013-01-31 19:44:00,34.3,18.5,29.77,WNW,283,14.0,15.0,52,0.00,,,0.87,meteohub,2013-02-01 00:44:00,
2013-01-31 19:49:00,34.5,18.7,29.78,West,263,7.0,16.0,52,0.00,,,0.87,meteohub,2013-02-01 00:49:00,
2013-01-31 19:54:00,34.5,18.7,29.78,WNW,284,11.0,18.0,52,0.00,,,0.87,meteohub,2013-02-01 00:54:00,
2013-01-31 19:59:00,34.5,19.2,29.78,WNW,298,7.0,20.0,53,0.00,,,0.87,meteohub,2013-02-01 00:59:00,
2013-01-31 20:04:00,33.6,23.9,29.79,WNW,287,27.0,27.0,67,0.00,,,0.87,meteohub,2013-02-01 01:04:00,
2013-01-31 20:09:00,32.0,25.0,29.80,NW,325,11.0,27.0,75,0.00,,,0.87,meteohub,2013-02-01 01:09:00,
2013-01-31 20:14:00,31.5,24.4,29.80,WNW,292,5.0,27.0,75,0.00,,,0.87,meteohub,2013-02-01 01:14:00,
2013-01-31 20:19:00,31.5,23.9,29.80,WNW,287,7.0,27.0,73,0.00,,,0.87,meteohub,2013-02-01 01:19:00,
2013-01-31 20:24:00,31.5,24.1,29.80,West,281,8.0,24.0,74,0.00,,,0.87,meteohub,2013-02-01 01:24:00,
2013-01-31 20:29:00,31.3,23.7,29.80,NW,308,11.0,16.0,73,0.00,,,0.87,meteohub,2013-02-01 01:29:00,
2013-01-31 20:34:00,31.3,23.0,29.80,WNW,288,8.0,16.0,71,0.00,,,0.87,meteohub,2013-02-01 01:34:00,
2013-01-31 20:39:00,31.3,23.0,29.80,West,271,3.0,13.0,71,0.00,,,0.87,meteohub,2013-02-01 01:39:00,
2013-01-31 20:44:00,31.3,22.6,29.81,WNW,285,9.0,13.0,70,0.00,,,0.87,meteohub,2013-02-01 01:44:00,
2013-01-31 20:49:00,31.3,21.9,29.81,West,276,8.0,13.0,68,0.00,,,0.87,meteohub,2013-02-01 01:49:00,
2013-01-31 20:54:00,31.5,21.4,29.81,WNW,291,8.0,13.0,66,0.00,,,0.87,meteohub,2013-02-01 01:54:00,
2013-01-31 20:59:00,31.5,21.0,29.81,West,278,15.0,15.0,65,0.00,,,0.87,meteohub,2013-02-01 01:59:00,
2013-01-31 21:04:00,31.6,20.5,29.81,West,264,6.0,17.0,63,0.00,,,0.87,meteohub,2013-02-01 02:04:00,
2013-01-31 21:09:00,31.6,20.1,29.82,WNW,298,10.0,18.0,62,0.00,,,0.87,meteohub,2013-02-01 02:09:00,
2013-01-31 21:14:00,31.8,19.0,29.82,WNW,294,11.0,22.0,59,0.00,,,0.87,meteohub,2013-02-01 02:14:00,
2013-01-31 21:19:00,31.8,18.7,29.82,WNW,284,9.0,22.0,58,0.00,,,0.87,meteohub,2013-02-01 02:19:00,
2013-01-31 21:25:00,31.6,16.5,29.82,West,281,11.0,22.0,53,0.00,,,0.87,meteohub,2013-02-01 02:25:00,
2013-01-31 21:30:00,31.6,15.1,29.83,WNW,295,7.0,22.0,50,0.00,,,0.87,meteohub,2013-02-01 02:30:00,
2013-01-31 21:35:00,31.6,14.2,29.83,WNW,295,15.0,22.0,48,0.00,,,0.87,meteohub,2013-02-01 02:35:00,
2013-01-31 21:40:00,31.6,13.6,29.83,WNW,302,5.0,22.0,47,0.00,,,0.87,meteohub,2013-02-01 02:40:00,
2013-01-31 21:45:00,31.5,13.6,29.83,West,276,6.0,24.0,47,0.00,,,0.87,meteohub,2013-02-01 02:45:00,
2013-01-31 21:50:00,31.3,13.5,29.83,WNW,284,11.0,24.0,47,0.00,,,0.87,meteohub,2013-02-01 02:50:00,
2013-01-31 21:55:00,31.3,13.5,29.83,WNW,290,12.0,24.0,47,0.00,,,0.87,meteohub,2013-02-01 02:55:00,
2013-01-31 22:00:00,31.3,13.8,29.83,NNE,15,9.0,16.0,48,0.00,,,0.87,meteohub,2013-02-01 03:00:00,
2013-01-31 22:05:00,31.1,13.6,29.83,NW,308,9.0,16.0,48,0.00,,,0.87,meteohub,2013-02-01 03:05:00,
2013-01-31 22:10:00,30.9,13.5,29.83,West,281,10.0,19.0,48,0.00,,,0.87,meteohub,2013-02-01 03:10:00,
2013-01-31 22:15:00,30.9,13.5,29.83,West,268,6.0,24.0,48,0.00,,,0.87,meteohub,2013-02-01 03:15:00,
2013-01-31 22:20:00,30.9,13.5,29.84,WNW,287,7.0,24.0,48,0.00,,,0.87,meteohub,2013-02-01 03:20:00,
2013-01-31 22:25:00,30.7,13.3,29.84,WNW,291,12.0,24.0,48,0.00,,,0.87,meteohub,2013-02-01 03:25:00,
2013-01-31 22:30:00,30.7,13.3,29.85,NW,305,4.0,16.0,48,0.00,,,0.87,meteohub,2013-02-01 03:30:00,
2013-01-31 22:35:00,30.6,13.6,29.84,West,281,10.0,14.0,49,0.00,,,0.87,meteohub,2013-02-01 03:35:00,
2013-01-31 22:40:00,30.6,13.6,29.84,WNW,293,10.0,14.0,49,0.00,,,0.87,meteohub,2013-02-01 03:40:00,
2013-01-31 22:45:00,30.6,13.6,29.84,NW,307,8.0,15.0,49,0.00,,,0.87,meteohub,2013-02-01 03:45:00,
2013-01-31 22:50:00,30.6,13.6,29.84,WNW,300,5.0,19.0,49,0.00,,,0.87,meteohub,2013-02-01 03:50:00,
2013-01-31 22:55:00,30.6,13.6,29.85,WNW,285,10.0,19.0,49,0.00,,,0.87,meteohub,2013-02-01 03:55:00,
2013-01-31 23:00:00,30.4,14.0,29.85,WNW,296,8.0,19.0,50,0.00,,,0.87,meteohub,2013-02-01 04:00:00,
2013-01-31 23:05:00,30.4,14.4,29.85,NW,309,4.0,17.0,51,0.00,,,0.87,meteohub,2013-02-01 04:05:00,
2013-01-31 23:10:00,30.0,14.5,29.85,WNW,293,6.0,15.0,52,0.00,,,0.87,meteohub,2013-02-01 04:10:00,
2013-01-31 23:15:00,30.0,14.9,29.85,WNW,284,7.0,18.0,53,0.00,,,0.87,meteohub,2013-02-01 04:15:00,
2013-01-31 23:20:00,30.0,14.9,29.86,WNW,288,7.0,18.0,53,0.00,,,0.87,meteohub,2013-02-01 04:20:00,
2013-01-31 23:25:00,29.8,15.3,29.86,WNW,288,4.0,18.0,54,0.00,,,0.87,meteohub,2013-02-01 04:25:00,
2013-01-31 23:30:00,29.8,15.3,29.86,WNW,288,9.0,14.0,54,0.00,,,0.87,meteohub,2013-02-01 04:30:00,
2013-01-31 23:35:00,29.8,15.3,29.86,WNW,287,6.0,12.0,54,0.00,,,0.87,meteohub,2013-02-01 04:35:00,
2013-01-31 23:40:00,29.7,15.1,29.86,WNW,293,8.0,12.0,54,0.00,,,0.87,meteohub,2013-02-01 04:40:00,
2013-01-31 23:45:00,29.7,15.1,29.86,NW,311,8.0,14.0,54,0.00,,,0.87,meteohub,2013-02-01 04:45:00,
2013-01-31 23:50:00,29.7,15.1,29.86,WNW,300,9.0,16.0,54,0.00,,,0.87,meteohub,2013-02-01 04:50:00,
2013-01-31 23:55:00,29.7,15.1,29.86,WNW,296,5.0,16.0,54,0.00,,,0.87,meteohub,2013-02-01 04:55:00,